Oval Lp No.11 — JL6306 — position and weather

sailwx.info

Track history (hours):
 
Tides and Currents Weather Stations Pressure Air Temp Water Temp Dewpoint Dewpoint Depression Visibility Wind Speed Wind Dir Waves Ship Positions

Oval Lp No.11

Last reported at 2015-Sep-03 04:31 UTC. Time now 2015-Sep-03 04:37 UTC.
Position N 35°29' E 140°01'.

Length 67 m; draft 3.6 m.

Type: Ship (hazmat cat A). MMSI: 431500366.

Date/timePositionNaut miles runAvg speedWind from/ knotsBaromVisibWave heightAir tempDewpointWater temp
2015-Sep-03 04:31N 35°29' E 140°01'0 0.1
2015-Sep-03 03:33N 35°29' E 140°01'5 5.2
2015-Sep-03 02:33N 35°33' E 140°05'0 0.0
2015-Sep-03 01:33N 35°33' E 140°05'0 0.0
2015-Sep-03 00:33N 35°33' E 140°05'0 0.0
2015-Sep-02 23:33N 35°33' E 140°05'1 1.1
2015-Sep-02 22:29N 35°34' E 140°05'0 0.0
2015-Sep-02 21:11N 35°34' E 140°05'0 0.0
2015-Sep-02 20:17N 35°34' E 140°05'0 0.1
2015-Sep-02 19:23N 35°34' E 140°05'0 0.0
2015-Sep-02 18:32N 35°34' E 140°05'0 0.0
2015-Sep-02 17:23N 35°34' E 140°05'0 0.1
2015-Sep-02 16:32N 35°34' E 140°05'0 0.0
2015-Sep-02 15:32N 35°34' E 140°05'0 0.0
2015-Sep-02 14:32N 35°34' E 140°05'0 0.0
2015-Sep-02 13:32N 35°34' E 140°05'0 0.0
2015-Sep-02 12:33N 35°34' E 140°05'0 0.0
2015-Sep-02 11:30N 35°34' E 140°05'0 0.0
2015-Sep-02 10:32N 35°34' E 140°05'0 0.0
2015-Sep-02 09:33N 35°34' E 140°05'0 0.0
2015-Sep-02 08:31N 35°34' E 140°05'0 0.0
2015-Sep-02 07:33N 35°34' E 140°05'0 0.0
2015-Sep-02 06:31N 35°34' E 140°05'0 0.0
2015-Sep-02 05:33N 35°34' E 140°05'0 0.0
2015-Sep-02 04:11N 35°34' E 140°05'0 0.0
2015-Sep-02 03:21N 35°34' E 140°05'0 0.0
2015-Sep-02 02:30N 35°34' E 140°05'0 0.0
2015-Sep-02 01:33N 35°34' E 140°05'0 0.0
2015-Sep-02 00:16N 35°34' E 140°05'0 0.0
2015-Sep-01 23:28N 35°34' E 140°05'0 0.0
2015-Sep-01 22:22N 35°34' E 140°05'0 0.0
2015-Sep-01 21:28N 35°34' E 140°05'0 0.0
2015-Sep-01 20:22N 35°34' E 140°05'0 0.0
2015-Sep-01 19:22N 35°34' E 140°05'0 0.1
2015-Sep-01 18:28N 35°34' E 140°05'0 0.0
2015-Sep-01 17:22N 35°34' E 140°05'0 0.0
2015-Sep-01 15:28N 35°34' E 140°05'0 0.0
2015-Sep-01 14:28N 35°34' E 140°05'0 0.0
2015-Sep-01 13:22N 35°34' E 140°05'0 0.0
2015-Sep-01 12:28N 35°34' E 140°05'0 0.0
2015-Sep-01 11:25N 35°34' E 140°05'0 0.0
2015-Sep-01 10:22N 35°34' E 140°05'0 0.1
2015-Sep-01 09:22N 35°34' E 140°05'0 0.1
2015-Sep-01 08:28N 35°34' E 140°05'0 0.0
2015-Sep-01 07:22N 35°34' E 140°05'0 0.0
2015-Sep-01 06:10N 35°34' E 140°05'0 0.0
2015-Sep-01 05:22N 35°34' E 140°05'0 0.4
2015-Sep-01 04:33N 35°34' E 140°05'1111.3
2015-Sep-01 03:33N 35°31' E 139°51'4 3.8
2015-Sep-01 02:30N 35°31' E 139°46'0 0.0
2015-Sep-01 01:33N 35°31' E 139°46'0 0.0
2015-Sep-01 00:30N 35°31' E 139°46'3 3.0
2015-Aug-31 23:33N 35°29' E 139°49'0 0.1
2015-Aug-31 22:33N 35°29' E 139°49'0 0.0
2015-Aug-31 21:33N 35°29' E 139°49'0 0.0
2015-Aug-31 20:33N 35°29' E 139°49'0 0.1
2015-Aug-31 19:33N 35°29' E 139°49'0 0.0
2015-Aug-31 18:33N 35°29' E 139°49'0 0.0
2015-Aug-31 17:33N 35°29' E 139°49'0 0.0
2015-Aug-31 16:33N 35°29' E 139°49'6 5.7
2015-Aug-31 15:33N 35°24' E 139°46'1110.5
2015-Aug-31 14:33N 35°13' E 139°47'1111.2
2015-Aug-31 13:33N 35°04' E 139°40'1211.5
2015-Aug-31 12:32N 34°56' E 139°29'228 9.9
2015-Aug-30 13:32N 34°00' E 135°01'1111.3
2015-Aug-30 12:33N 34°11' E 135°00'20 9.1
2015-Aug-30 10:21N 34°29' E 135°12'17 0.4
2015-Aug-28 11:14N 34°15' E 134°59'913.1
2015-Aug-28 10:32N 34°06' E 135°00'24110.0
2015-Aug-27 10:30N 35°08' E 139°43'1111.4
2015-Aug-27 09:34N 35°19' E 139°43'1110.6
2015-Aug-27 08:33N 35°28' E 139°49'1211.9
2015-Aug-27 07:34N 35°33' E 140°02'2 2.3
2015-Aug-27 06:33N 35°33' E 140°05'0 0.0
2015-Aug-27 05:30N 35°33' E 140°05'0 0.0
2015-Aug-27 04:33N 35°33' E 140°05'0 0.0
2015-Aug-27 03:33N 35°33' E 140°05'7 7.1
2015-Aug-27 02:33N 35°30' E 139°57'1 1.3
2015-Aug-27 01:31N 35°29' E 139°55'0 0.0
2015-Aug-27 00:31N 35°29' E 139°55'0 0.0
2015-Aug-26 23:31N 35°29' E 139°55'0 0.0
2015-Aug-26 22:31N 35°29' E 139°55'0 0.0
2015-Aug-26 21:31N 35°29' E 139°55'0 0.0
2015-Aug-26 20:31N 35°29' E 139°55'0 0.0
2015-Aug-26 19:28N 35°29' E 139°55'0 0.0
2015-Aug-26 18:28N 35°29' E 139°55'0 0.0
2015-Aug-26 17:28N 35°29' E 139°55'0 0.0
2015-Aug-26 16:31N 35°29' E 139°55'0 0.0
2015-Aug-26 15:31N 35°29' E 139°55'2 1.6
2015-Aug-26 14:33N 35°30' E 139°54'6 6.4
2015-Aug-26 13:33N 35°31' E 139°46'0 0.0
2015-Aug-26 12:31N 35°31' E 139°46'0 0.0
2015-Aug-26 11:31N 35°31' E 139°46'0 0.0
2015-Aug-26 10:31N 35°31' E 139°46'0 0.0
2015-Aug-26 09:31N 35°31' E 139°46'0 0.0
2015-Aug-26 08:31N 35°31' E 139°46'0 0.0
2015-Aug-26 07:31N 35°31' E 139°46'0 0.0
2015-Aug-26 06:31N 35°31' E 139°46'0 0.0
2015-Aug-26 05:31N 35°31' E 139°46'0 0.0
2015-Aug-26 04:31N 35°31' E 139°46'7 7.5
2015-Aug-26 03:33N 35°31' E 139°55'8 8.4
2015-Aug-26 02:33N 35°33' E 140°05'0 0.0
2015-Aug-26 01:30N 35°33' E 140°05'0 0.0
2015-Aug-26 00:33N 35°33' E 140°05'0 0.0
2015-Aug-25 23:33N 35°33' E 140°05'1 0.9
2015-Aug-25 22:33N 35°34' E 140°05'0 0.0
2015-Aug-25 21:33N 35°34' E 140°05'0 0.0
2015-Aug-25 20:33N 35°34' E 140°05'0 0.0
2015-Aug-25 19:33N 35°34' E 140°05'0 0.0
2015-Aug-25 18:33N 35°34' E 140°05'0 0.0
2015-Aug-25 16:33N 35°34' E 140°05'0 0.0
2015-Aug-25 15:33N 35°34' E 140°05'0 0.0
2015-Aug-25 14:33N 35°34' E 140°05'0 0.0
2015-Aug-25 13:33N 35°34' E 140°05'0 0.0
2015-Aug-25 12:29N 35°34' E 140°05'0 0.0
2015-Aug-25 11:27N 35°34' E 140°05'0 0.0
2015-Aug-25 10:33N 35°34' E 140°05'0 0.0
2015-Aug-25 09:33N 35°34' E 140°05'0 0.0
2015-Aug-25 08:33N 35°34' E 140°05'4 3.7
2015-Aug-25 07:33N 35°32' E 140°01'3 2.9
2015-Aug-25 06:28N 35°29' E 140°01'0 0.0
2015-Aug-25 05:31N 35°29' E 140°01'0 0.0
2015-Aug-25 04:28N 35°29' E 140°01'0 0.4
2015-Aug-25 03:33N 35°29' E 140°01'5 4.8
2015-Aug-25 02:28N 35°33' E 140°05'0 0.0
2015-Aug-25 01:22N 35°33' E 140°05'0 0.0
2015-Aug-25 00:16N 35°33' E 140°05'0 0.1
2015-Aug-24 23:32N 35°33' E 140°05'1 0.8
2015-Aug-24 22:32N 35°33' E 140°05'0 0.0
2015-Aug-24 21:29N 35°33' E 140°05'0 0.0
2015-Aug-24 20:29N 35°33' E 140°05'0 0.0
2015-Aug-24 19:29N 35°33' E 140°05'0 0.0
2015-Aug-24 18:29N 35°33' E 140°05'0 0.0
2015-Aug-24 17:29N 35°33' E 140°05'0 0.0
2015-Aug-24 16:29N 35°33' E 140°05'0 0.0
2015-Aug-24 15:17N 35°33' E 140°05'0 0.0
2015-Aug-24 14:23N 35°33' E 140°05'0 0.0
2015-Aug-24 13:17N 35°33' E 140°05'0 0.0
2015-Aug-24 12:23N 35°33' E 140°05'0 0.0
2015-Aug-24 11:29N 35°33' E 140°05'0 0.0
2015-Aug-24 10:23N 35°33' E 140°05'0 0.0
2015-Aug-24 09:26N 35°33' E 140°05'0 0.0
2015-Aug-24 08:32N 35°33' E 140°05'0 0.0
2015-Aug-24 07:32N 35°33' E 140°05'0 0.0
2015-Aug-24 06:29N 35°33' E 140°05'0 0.0
2015-Aug-24 05:20N 35°33' E 140°05'  
Track history (hours):
 
Tides and Currents Weather Stations Pressure Air Temp Water Temp Dewpoint Dewpoint Depression Visibility Wind Speed Wind Dir Waves Ship Positions

Oval Lp No.11

Last reported at 2015-Sep-03 04:31 UTC. Time now 2015-Sep-03 04:37 UTC.
Position N 35°29' E 140°01'.

Length 67 m; draft 3.6 m.

Type: Ship (hazmat cat A). MMSI: 431500366.

Date/timePositionNaut miles runAvg speedWind from/ knotsBaromVisibWave heightAir tempDewpointWater temp
2015-Sep-03 04:31N 35°29' E 140°01'0 0.1
2015-Sep-03 03:33N 35°29' E 140°01'5 5.2
2015-Sep-03 02:33N 35°33' E 140°05'0 0.0
2015-Sep-03 01:33N 35°33' E 140°05'0 0.0
2015-Sep-03 00:33N 35°33' E 140°05'0 0.0
2015-Sep-02 23:33N 35°33' E 140°05'1 1.1
2015-Sep-02 22:29N 35°34' E 140°05'0 0.0
2015-Sep-02 21:11N 35°34' E 140°05'0 0.0
2015-Sep-02 20:17N 35°34' E 140°05'0 0.1
2015-Sep-02 19:23N 35°34' E 140°05'0 0.0
2015-Sep-02 18:32N 35°34' E 140°05'0 0.0
2015-Sep-02 17:23N 35°34' E 140°05'0 0.1
2015-Sep-02 16:32N 35°34' E 140°05'0 0.0
2015-Sep-02 15:32N 35°34' E 140°05'0 0.0
2015-Sep-02 14:32N 35°34' E 140°05'0 0.0
2015-Sep-02 13:32N 35°34' E 140°05'0 0.0
2015-Sep-02 12:33N 35°34' E 140°05'0 0.0
2015-Sep-02 11:30N 35°34' E 140°05'0 0.0
2015-Sep-02 10:32N 35°34' E 140°05'0 0.0
2015-Sep-02 09:33N 35°34' E 140°05'0 0.0
2015-Sep-02 08:31N 35°34' E 140°05'0 0.0
2015-Sep-02 07:33N 35°34' E 140°05'0 0.0
2015-Sep-02 06:31N 35°34' E 140°05'0 0.0
2015-Sep-02 05:33N 35°34' E 140°05'0 0.0
2015-Sep-02 04:11N 35°34' E 140°05'0 0.0
2015-Sep-02 03:21N 35°34' E 140°05'0 0.0
2015-Sep-02 02:30N 35°34' E 140°05'0 0.0
2015-Sep-02 01:33N 35°34' E 140°05'0 0.0
2015-Sep-02 00:16N 35°34' E 140°05'0 0.0
2015-Sep-01 23:28N 35°34' E 140°05'0 0.0
2015-Sep-01 22:22N 35°34' E 140°05'0 0.0
2015-Sep-01 21:28N 35°34' E 140°05'0 0.0
2015-Sep-01 20:22N 35°34' E 140°05'0 0.0
2015-Sep-01 19:22N 35°34' E 140°05'0 0.1
2015-Sep-01 18:28N 35°34' E 140°05'0 0.0
2015-Sep-01 17:22N 35°34' E 140°05'0 0.0
2015-Sep-01 15:28N 35°34' E 140°05'0 0.0
2015-Sep-01 14:28N 35°34' E 140°05'0 0.0
2015-Sep-01 13:22N 35°34' E 140°05'0 0.0
2015-Sep-01 12:28N 35°34' E 140°05'0 0.0
2015-Sep-01 11:25N 35°34' E 140°05'0 0.0
2015-Sep-01 10:22N 35°34' E 140°05'0 0.1
2015-Sep-01 09:22N 35°34' E 140°05'0 0.1
2015-Sep-01 08:28N 35°34' E 140°05'0 0.0
2015-Sep-01 07:22N 35°34' E 140°05'0 0.0
2015-Sep-01 06:10N 35°34' E 140°05'0 0.0
2015-Sep-01 05:22N 35°34' E 140°05'0 0.4
2015-Sep-01 04:33N 35°34' E 140°05'1111.3
2015-Sep-01 03:33N 35°31' E 139°51'4 3.8
2015-Sep-01 02:30N 35°31' E 139°46'0 0.0
2015-Sep-01 01:33N 35°31' E 139°46'0 0.0
2015-Sep-01 00:30N 35°31' E 139°46'3 3.0
2015-Aug-31 23:33N 35°29' E 139°49'0 0.1
2015-Aug-31 22:33N 35°29' E 139°49'0 0.0
2015-Aug-31 21:33N 35°29' E 139°49'0 0.0
2015-Aug-31 20:33N 35°29' E 139°49'0 0.1
2015-Aug-31 19:33N 35°29' E 139°49'0 0.0
2015-Aug-31 18:33N 35°29' E 139°49'0 0.0
2015-Aug-31 17:33N 35°29' E 139°49'0 0.0
2015-Aug-31 16:33N 35°29' E 139°49'6 5.7
2015-Aug-31 15:33N 35°24' E 139°46'1110.5
2015-Aug-31 14:33N 35°13' E 139°47'1111.2
2015-Aug-31 13:33N 35°04' E 139°40'1211.5
2015-Aug-31 12:32N 34°56' E 139°29'228 9.9
2015-Aug-30 13:32N 34°00' E 135°01'1111.3
2015-Aug-30 12:33N 34°11' E 135°00'20 9.1
2015-Aug-30 10:21N 34°29' E 135°12'17 0.4
2015-Aug-28 11:14N 34°15' E 134°59'913.1
2015-Aug-28 10:32N 34°06' E 135°00'24110.0
2015-Aug-27 10:30N 35°08' E 139°43'1111.4
2015-Aug-27 09:34N 35°19' E 139°43'1110.6
2015-Aug-27 08:33N 35°28' E 139°49'1211.9
2015-Aug-27 07:34N 35°33' E 140°02'2 2.3
2015-Aug-27 06:33N 35°33' E 140°05'0 0.0
2015-Aug-27 05:30N 35°33' E 140°05'0 0.0
2015-Aug-27 04:33N 35°33' E 140°05'0 0.0
2015-Aug-27 03:33N 35°33' E 140°05'7 7.1
2015-Aug-27 02:33N 35°30' E 139°57'1 1.3
2015-Aug-27 01:31N 35°29' E 139°55'0 0.0
2015-Aug-27 00:31N 35°29' E 139°55'0 0.0
2015-Aug-26 23:31N 35°29' E 139°55'0 0.0
2015-Aug-26 22:31N 35°29' E 139°55'0 0.0
2015-Aug-26 21:31N 35°29' E 139°55'0 0.0
2015-Aug-26 20:31N 35°29' E 139°55'0 0.0
2015-Aug-26 19:28N 35°29' E 139°55'0 0.0
2015-Aug-26 18:28N 35°29' E 139°55'0 0.0
2015-Aug-26 17:28N 35°29' E 139°55'0 0.0
2015-Aug-26 16:31N 35°29' E 139°55'0 0.0
2015-Aug-26 15:31N 35°29' E 139°55'2 1.6
2015-Aug-26 14:33N 35°30' E 139°54'6 6.4
2015-Aug-26 13:33N 35°31' E 139°46'0 0.0
2015-Aug-26 12:31N 35°31' E 139°46'0 0.0
2015-Aug-26 11:31N 35°31' E 139°46'0 0.0
2015-Aug-26 10:31N 35°31' E 139°46'0 0.0
2015-Aug-26 09:31N 35°31' E 139°46'0 0.0
2015-Aug-26 08:31N 35°31' E 139°46'0 0.0
2015-Aug-26 07:31N 35°31' E 139°46'0 0.0
2015-Aug-26 06:31N 35°31' E 139°46'0 0.0
2015-Aug-26 05:31N 35°31' E 139°46'0 0.0
2015-Aug-26 04:31N 35°31' E 139°46'7 7.5
2015-Aug-26 03:33N 35°31' E 139°55'8 8.4
2015-Aug-26 02:33N 35°33' E 140°05'0 0.0
2015-Aug-26 01:30N 35°33' E 140°05'0 0.0
2015-Aug-26 00:33N 35°33' E 140°05'0 0.0
2015-Aug-25 23:33N 35°33' E 140°05'1 0.9
2015-Aug-25 22:33N 35°34' E 140°05'0 0.0
2015-Aug-25 21:33N 35°34' E 140°05'0 0.0
2015-Aug-25 20:33N 35°34' E 140°05'0 0.0
2015-Aug-25 19:33N 35°34' E 140°05'0 0.0
2015-Aug-25 18:33N 35°34' E 140°05'0 0.0
2015-Aug-25 16:33N 35°34' E 140°05'0 0.0
2015-Aug-25 15:33N 35°34' E 140°05'0 0.0
2015-Aug-25 14:33N 35°34' E 140°05'0 0.0
2015-Aug-25 13:33N 35°34' E 140°05'0 0.0
2015-Aug-25 12:29N 35°34' E 140°05'0 0.0
2015-Aug-25 11:27N 35°34' E 140°05'0 0.0
2015-Aug-25 10:33N 35°34' E 140°05'0 0.0
2015-Aug-25 09:33N 35°34' E 140°05'0 0.0
2015-Aug-25 08:33N 35°34' E 140°05'4 3.7
2015-Aug-25 07:33N 35°32' E 140°01'3 2.9
2015-Aug-25 06:28N 35°29' E 140°01'0 0.0
2015-Aug-25 05:31N 35°29' E 140°01'0 0.0
2015-Aug-25 04:28N 35°29' E 140°01'0 0.4
2015-Aug-25 03:33N 35°29' E 140°01'5 4.8
2015-Aug-25 02:28N 35°33' E 140°05'0 0.0
2015-Aug-25 01:22N 35°33' E 140°05'0 0.0
2015-Aug-25 00:16N 35°33' E 140°05'0 0.1
2015-Aug-24 23:32N 35°33' E 140°05'1 0.8
2015-Aug-24 22:32N 35°33' E 140°05'0 0.0
2015-Aug-24 21:29N 35°33' E 140°05'0 0.0
2015-Aug-24 20:29N 35°33' E 140°05'0 0.0
2015-Aug-24 19:29N 35°33' E 140°05'0 0.0
2015-Aug-24 18:29N 35°33' E 140°05'0 0.0
2015-Aug-24 17:29N 35°33' E 140°05'0 0.0
2015-Aug-24 16:29N 35°33' E 140°05'0 0.0
2015-Aug-24 15:17N 35°33' E 140°05'0 0.0
2015-Aug-24 14:23N 35°33' E 140°05'0 0.0
2015-Aug-24 13:17N 35°33' E 140°05'0 0.0
2015-Aug-24 12:23N 35°33' E 140°05'0 0.0
2015-Aug-24 11:29N 35°33' E 140°05'0 0.0
2015-Aug-24 10:23N 35°33' E 140°05'0 0.0
2015-Aug-24 09:26N 35°33' E 140°05'0 0.0
2015-Aug-24 08:32N 35°33' E 140°05'0 0.0
2015-Aug-24 07:32N 35°33' E 140°05'0 0.0
2015-Aug-24 06:29N 35°33' E 140°05'0 0.0
2015-Aug-24 05:20N 35°33' E 140°05'  

Dump ship's entire track history